createdAt,value
2023-05-24T00:02:00.896Z,9.8
2023-05-24T00:07:38.423Z,9.6
2023-05-24T00:13:29.733Z,9.4
2023-05-24T00:19:06.746Z,9.4
2023-05-24T00:25:00.098Z,9.6
2023-05-24T00:30:52.230Z,9.7
2023-05-24T00:36:28.447Z,9.6
2023-05-24T00:42:20.547Z,9.6
2023-05-24T00:48:12.513Z,9.6
2023-05-24T00:54:05.637Z,9.5
2023-05-24T00:59:42.316Z,9.4
2023-05-24T01:05:36.088Z,9.5
2023-05-24T01:11:30.075Z,9.3
2023-05-24T01:17:21.660Z,9.1
2023-05-24T01:23:13.254Z,9.4
2023-05-24T01:29:04.312Z,9.1
2023-05-24T01:34:56.734Z,8.9
2023-05-24T01:40:33.377Z,9.3
2023-05-24T01:46:09.297Z,9.1
2023-05-24T01:52:01.203Z,9
2023-05-24T01:57:52.549Z,9.3
2023-05-24T02:03:45.361Z,9.3
2023-05-24T02:09:20.761Z,9.1
2023-05-24T02:15:12.256Z,9.3
2023-05-24T02:21:04.362Z,9.3
2023-05-24T02:26:40.392Z,9.4
2023-05-24T02:32:32.060Z,9.4
2023-05-24T02:38:23.422Z,9
2023-05-24T02:44:14.449Z,8.8
2023-05-24T02:50:06.653Z,8.9
2023-05-24T02:55:43.522Z,9
2023-05-24T03:01:34.887Z,8.9
2023-05-24T03:07:27.929Z,8.5
2023-05-24T03:13:21.386Z,8.4
2023-05-24T03:19:12.264Z,8.5
2023-05-24T03:25:04.956Z,8.6
2023-05-24T03:30:56.026Z,8.4
2023-05-24T03:36:46.946Z,8.4
2023-05-24T03:42:39.302Z,8.6
2023-05-24T03:48:45.419Z,8.8
2023-05-24T03:54:37.362Z,9.1
2023-05-24T04:00:31.617Z,9.3
2023-05-24T04:06:35.988Z,9.6
2023-05-24T04:11:56.596Z,9.8
2023-05-24T04:17:48.855Z,10.2
2023-05-24T04:23:41.538Z,10.4
2023-05-24T04:29:33.434Z,10.8
2023-05-24T04:35:25.969Z,11
2023-05-24T04:41:17.895Z,11.1
2023-05-24T04:47:09.520Z,11.4
2023-05-24T04:53:02.165Z,11.9
2023-05-24T04:58:55.764Z,12.3
2023-05-24T05:04:32.216Z,12.5
2023-05-24T05:10:24.819Z,12.6
2023-05-24T05:16:16.698Z,13.3
2023-05-24T05:22:09.545Z,13.3
2023-05-24T05:27:46.247Z,13.8
2023-05-24T05:33:22.898Z,13.8
2023-05-24T05:39:01.574Z,14.7
2023-05-24T05:44:53.830Z,14.8
2023-05-24T05:50:30.886Z,15.2
2023-05-24T05:56:21.413Z,15.8
2023-05-24T06:02:13.481Z,16.1
2023-05-24T06:08:07.335Z,16.6
2023-05-24T06:14:00.276Z,17.1
2023-05-24T06:20:03.807Z,17.3
2023-05-24T06:25:54.553Z,17.8
2023-05-24T06:31:46.055Z,17.4
2023-05-24T06:37:46.021Z,17.9
2023-05-24T06:43:36.654Z,18.6
2023-05-24T06:49:28.630Z,18.6
2023-05-24T06:55:21.140Z,19.3
2023-05-24T07:01:15.373Z,19
2023-05-24T07:07:07.536Z,20.1
2023-05-24T07:12:59.471Z,20.4
2023-05-24T07:18:36.015Z,21.3
2023-05-24T07:24:30.618Z,20.3
2023-05-24T07:30:13.818Z,21.3
2023-05-24T07:35:56.959Z,22.2
2023-05-24T07:41:36.281Z,22.4
2023-05-24T07:47:29.028Z,23
2023-05-24T07:53:05.458Z,22.9
2023-05-24T07:58:56.807Z,23.5
2023-05-24T08:04:34.813Z,23.5
2023-05-24T08:10:26.333Z,24.2
2023-05-24T08:16:02.094Z,24.8
2023-05-24T08:21:55.203Z,24.4
2023-05-24T08:27:50.398Z,23.5
2023-05-24T08:33:43.720Z,24.6
2023-05-24T08:39:35.017Z,23.9
2023-05-24T08:45:23.239Z,24.2
2023-05-24T08:51:18.069Z,24.4
2023-05-24T08:57:10.800Z,25.4
2023-05-24T09:02:47.476Z,24.7
2023-05-24T09:07:54.251Z,24.6
2023-05-24T09:14:12.671Z,27
2023-05-24T09:20:07.611Z,25
2023-05-24T09:25:48.057Z,25.6
2023-05-24T09:31:41.406Z,27.5
2023-05-24T09:37:17.816Z,26.1
2023-05-24T09:43:08.973Z,27.2
2023-05-24T09:48:31.776Z,27
2023-05-24T09:54:09.627Z,27.6
2023-05-24T10:00:01.400Z,25.9
2023-05-24T10:06:09.964Z,25.1
2023-05-24T10:12:02.450Z,26.1
2023-05-24T10:17:38.642Z,26.3
2023-05-24T10:47:03.418Z,27.6
2023-05-24T10:52:42.501Z,26.1
2023-05-24T10:57:57.808Z,27.9
2023-05-24T11:03:41.693Z,28.3
2023-05-24T11:08:47.190Z,29.7
2023-05-24T11:13:53.389Z,29.6
2023-05-24T11:19:17.497Z,28
2023-05-24T11:24:38.923Z,28.3
2023-05-24T11:30:15.046Z,30.1
2023-05-24T11:41:44.035Z,28.1
2023-05-24T11:47:21.256Z,29.6
2023-05-24T11:53:08.760Z,30.8
2023-05-24T11:58:45.436Z,30.4
2023-05-24T12:04:26.553Z,30.3
2023-05-24T12:10:04.604Z,31.1
2023-05-24T12:15:56.125Z,30.2
2023-05-24T12:21:49.801Z,31.2
2023-05-24T12:27:28.682Z,29.1
2023-05-24T12:33:06.371Z,29.3
2023-05-24T12:38:43.091Z,28.6
2023-05-24T12:44:53.520Z,28.6
2023-05-24T12:50:30.069Z,30.9
2023-05-24T12:56:05.904Z,30.7
2023-05-24T13:01:44.255Z,31
2023-05-24T13:07:06.258Z,27.9
2023-05-24T13:12:27.664Z,30.3
2023-05-24T13:18:05.381Z,29.1
2023-05-24T13:23:56.987Z,28.4
2023-05-24T13:30:01.142Z,28.1
2023-05-24T13:35:25.118Z,26.4
2023-05-24T13:41:01.238Z,23.2
2023-05-24T13:46:22.417Z,22.4
2023-05-24T13:51:58.544Z,21.9
2023-05-24T13:57:20.329Z,20.9
2023-05-24T14:02:45.021Z,21.3
2023-05-24T14:08:37.388Z,21.3
2023-05-24T14:15:33.479Z,21.3
2023-05-24T14:20:55.615Z,21.2
2023-05-24T14:26:17.379Z,21.4
2023-05-24T14:31:38.263Z,21.8
2023-05-24T14:36:59.839Z,22.1
2023-05-24T14:42:39.148Z,22.6
2023-05-24T14:48:16.040Z,23.3
2023-05-24T14:53:51.564Z,23.7
2023-05-24T14:59:28.799Z,22.8
2023-05-24T15:05:09.160Z,23.3
2023-05-24T15:10:45.077Z,23.1
2023-05-24T15:16:21.665Z,22.9
2023-05-24T15:21:57.875Z,22.8
2023-05-24T15:27:34.927Z,23.1
2023-05-24T15:33:14.613Z,22.9
2023-05-24T15:38:52.379Z,24.3
2023-05-24T15:44:27.755Z,24.4
2023-05-24T15:50:28.739Z,26.6
2023-05-24T15:57:21.750Z,25.5
2023-05-24T16:03:12.590Z,25.3
2023-05-24T16:08:49.807Z,24.1
2023-05-24T16:14:28.683Z,23.8
2023-05-24T16:20:22.612Z,22.9
2023-05-24T16:26:17.531Z,22.4
2023-05-24T16:32:10.890Z,22.4
2023-05-24T16:38:20.707Z,22.4
2023-05-24T16:44:12.572Z,22.4
2023-05-24T16:49:49.361Z,22.5
2023-05-24T16:55:40.456Z,22.7
2023-05-24T17:01:35.587Z,22.6
2023-05-24T17:07:31.673Z,22.3
2023-05-24T17:13:22.410Z,22
2023-05-24T17:19:14.821Z,22
2023-05-24T17:30:46.332Z,21.5
2023-05-24T17:36:38.316Z,21.3
2023-05-24T17:42:30.019Z,21.2
2023-05-24T17:48:25.332Z,20.9
2023-05-24T17:54:20.689Z,20.8
2023-05-24T17:59:56.789Z,20.3
2023-05-24T18:05:51.988Z,20.3
2023-05-24T18:11:45.416Z,20
2023-05-24T18:17:37.711Z,19.5
2023-05-24T18:23:29.537Z,19.2
2023-05-24T18:29:26.970Z,19.1
2023-05-24T18:35:22.096Z,19.1
2023-05-24T18:41:13.693Z,19.1
2023-05-24T18:46:51.698Z,18.8
2023-05-24T18:52:44.019Z,18.8
2023-05-24T18:58:04.490Z,19.2
2023-05-24T19:03:59.345Z,18.5
2023-05-24T19:15:28.636Z,18.6
2023-05-24T19:21:22.202Z,18
2023-05-24T19:27:15.100Z,17.9
2023-05-24T19:32:59.072Z,18
2023-05-24T19:38:31.574Z,17.9
2023-05-24T19:44:23.117Z,17.7
2023-05-24T19:50:15.182Z,17.5
2023-05-24T19:55:53.479Z,17.1
2023-05-24T20:01:29.933Z,16.8
2023-05-24T20:07:08.138Z,16.7
2023-05-24T20:12:45.122Z,16.6
2023-05-24T20:18:06.750Z,16.9
2023-05-24T20:23:42.635Z,16.8
2023-05-24T20:29:32.392Z,16.8
2023-05-24T20:35:08.692Z,16.9
2023-05-24T20:40:44.785Z,16.8
2023-05-24T20:46:22.169Z,16.8
2023-05-24T20:52:00.958Z,16.7
2023-05-24T20:57:37.389Z,16.6
2023-05-24T21:03:17.282Z,16.6
2023-05-24T21:08:54.182Z,16.7
2023-05-24T21:14:15.337Z,16.7
2023-05-24T21:19:37.420Z,16.6
2023-05-24T21:24:58.259Z,16.3
2023-05-24T21:30:33.940Z,16.1
2023-05-24T21:36:11.272Z,15.9
2023-05-24T21:41:46.930Z,15.9
2023-05-24T21:47:23.374Z,16.1
2023-05-24T21:53:15.583Z,16.2
2023-05-24T21:59:10.807Z,16.2
2023-05-24T22:05:03.420Z,15.3
2023-05-24T22:10:55.024Z,15.1
2023-05-24T22:16:46.565Z,15
2023-05-24T22:22:46.165Z,15
2023-05-24T22:28:40.392Z,14.4
2023-05-24T22:34:16.731Z,14.3
2023-05-24T22:40:08.136Z,14.2
2023-05-24T22:45:29.289Z,14
2023-05-24T22:51:21.457Z,13.9
